sensor_id;sensor_type;location;lat;lon;timestamp;temperature;humidity
6810;DHT22;3443;48.812;9.112;2022-12-07T00:01:35;3.50;99.90
6810;DHT22;3443;48.812;9.112;2022-12-07T00:04:02;3.50;99.90
6810;DHT22;3443;48.812;9.112;2022-12-07T00:06:33;3.50;99.90
6810;DHT22;3443;48.812;9.112;2022-12-07T00:08:59;3.50;99.90
6810;DHT22;3443;48.812;9.112;2022-12-07T00:11:25;3.40;99.90
6810;DHT22;3443;48.812;9.112;2022-12-07T00:13:53;3.50;99.90
6810;DHT22;3443;48.812;9.112;2022-12-07T00:16:20;3.50;99.90
6810;DHT22;3443;48.812;9.112;2022-12-07T00:18:46;3.50;99.90
6810;DHT22;3443;48.812;9.112;2022-12-07T00:21:14;3.40;99.90
6810;DHT22;3443;48.812;9.112;2022-12-07T00:23:41;3.40;99.90
6810;DHT22;3443;48.812;9.112;2022-12-07T00:26:25;3.40;99.90
6810;DHT22;3443;48.812;9.112;2022-12-07T00:28:53;3.40;99.90
6810;DHT22;3443;48.812;9.112;2022-12-07T00:31:21;3.40;99.90
6810;DHT22;3443;48.812;9.112;2022-12-07T00:33:47;3.40;99.90
6810;DHT22;3443;48.812;9.112;2022-12-07T00:36:15;3.40;99.90
6810;DHT22;3443;48.812;9.112;2022-12-07T00:38:42;3.40;99.90
6810;DHT22;3443;48.812;9.112;2022-12-07T00:41:19;3.40;99.90
6810;DHT22;3443;48.812;9.112;2022-12-07T00:43:46;3.40;99.90
6810;DHT22;3443;48.812;9.112;2022-12-07T00:46:13;3.40;99.90
6810;DHT22;3443;48.812;9.112;2022-12-07T00:48:40;3.30;99.90
6810;DHT22;3443;48.812;9.112;2022-12-07T00:51:06;3.30;99.90
6810;DHT22;3443;48.812;9.112;2022-12-07T00:53:34;3.20;99.90
6810;DHT22;3443;48.812;9.112;2022-12-07T00:56:08;3.30;99.90
6810;DHT22;3443;48.812;9.112;2022-12-07T00:58:34;3.10;99.90
6810;DHT22;3443;48.812;9.112;2022-12-07T01:01:01;3.30;99.90
6810;DHT22;3443;48.812;9.112;2022-12-07T01:03:27;3.20;99.90
6810;DHT22;3443;48.812;9.112;2022-12-07T01:05:54;3.30;99.90
6810;DHT22;3443;48.812;9.112;2022-12-07T01:08:21;3.30;99.90
6810;DHT22;3443;48.812;9.112;2022-12-07T01:10:46;3.20;99.90
6810;DHT22;3443;48.812;9.112;2022-12-07T01:13:13;3.20;99.90
6810;DHT22;3443;48.812;9.112;2022-12-07T01:15:43;3.20;99.90
6810;DHT22;3443;48.812;9.112;2022-12-07T01:18:08;3.20;99.90
6810;DHT22;3443;48.812;9.112;2022-12-07T01:20:34;3.20;99.90
6810;DHT22;3443;48.812;9.112;2022-12-07T01:23:00;3.30;99.90
6810;DHT22;3443;48.812;9.112;2022-12-07T01:25:25;3.30;99.90
6810;DHT22;3443;48.812;9.112;2022-12-07T01:27:51;3.30;99.90
6810;DHT22;3443;48.812;9.112;2022-12-07T01:30:17;3.20;99.90
6810;DHT22;3443;48.812;9.112;2022-12-07T01:32:42;3.20;99.90
6810;DHT22;3443;48.812;9.112;2022-12-07T01:35:08;3.30;99.90
6810;DHT22;3443;48.812;9.112;2022-12-07T01:37:38;3.20;99.90
6810;DHT22;3443;48.812;9.112;2022-12-07T01:40:07;3.20;99.90
6810;DHT22;3443;48.812;9.112;2022-12-07T01:42:34;3.30;99.90
6810;DHT22;3443;48.812;9.112;2022-12-07T01:47:50;3.20;99.90
6810;DHT22;3443;48.812;9.112;2022-12-07T01:50:17;3.20;99.90
6810;DHT22;3443;48.812;9.112;2022-12-07T01:52:44;3.20;99.90
6810;DHT22;3443;48.812;9.112;2022-12-07T01:55:13;3.20;99.90
6810;DHT22;3443;48.812;9.112;2022-12-07T01:57:43;3.20;99.90
6810;DHT22;3443;48.812;9.112;2022-12-07T02:00:11;3.20;99.90
6810;DHT22;3443;48.812;9.112;2022-12-07T02:05:09;3.20;99.90
6810;DHT22;3443;48.812;9.112;2022-12-07T02:07:37;3.20;99.90
6810;DHT22;3443;48.812;9.112;2022-12-07T02:10:18;3.20;99.90
6810;DHT22;3443;48.812;9.112;2022-12-07T02:12:47;3.20;99.90
6810;DHT22;3443;48.812;9.112;2022-12-07T02:15:14;3.20;99.90
6810;DHT22;3443;48.812;9.112;2022-12-07T02:20:28;3.20;99.90
6810;DHT22;3443;48.812;9.112;2022-12-07T02:26:24;3.10;99.90
6810;DHT22;3443;48.812;9.112;2022-12-07T02:29:12;3.10;99.90
6810;DHT22;3443;48.812;9.112;2022-12-07T02:31:49;3.10;99.90
6810;DHT22;3443;48.812;9.112;2022-12-07T02:34:25;3.10;99.90
6810;DHT22;3443;48.812;9.112;2022-12-07T02:36:55;3.20;99.90
6810;DHT22;3443;48.812;9.112;2022-12-07T02:42:55;3.10;99.90
6810;DHT22;3443;48.812;9.112;2022-12-07T02:45:21;3.10;99.90
6810;DHT22;3443;48.812;9.112;2022-12-07T02:47:50;3.10;99.90
6810;DHT22;3443;48.812;9.112;2022-12-07T02:50:21;3.10;99.90
6810;DHT22;3443;48.812;9.112;2022-12-07T02:52:47;3.00;99.90
6810;DHT22;3443;48.812;9.112;2022-12-07T02:55:15;3.10;99.90
6810;DHT22;3443;48.812;9.112;2022-12-07T02:57:49;3.10;99.90
6810;DHT22;3443;48.812;9.112;2022-12-07T03:00:20;3.00;99.90
6810;DHT22;3443;48.812;9.112;2022-12-07T03:03:05;3.00;99.90
6810;DHT22;3443;48.812;9.112;2022-12-07T03:08:34;3.00;99.90
6810;DHT22;3443;48.812;9.112;2022-12-07T03:11:18;3.00;99.90
6810;DHT22;3443;48.812;9.112;2022-12-07T03:14:30;3.00;99.90
6810;DHT22;3443;48.812;9.112;2022-12-07T03:16:40;3.00;99.90
6810;DHT22;3443;48.812;9.112;2022-12-07T03:19:10;3.00;99.90
6810;DHT22;3443;48.812;9.112;2022-12-07T03:21:39;3.00;99.90
6810;DHT22;3443;48.812;9.112;2022-12-07T03:24:20;3.00;99.90
6810;DHT22;3443;48.812;9.112;2022-12-07T03:26:52;3.00;99.90
6810;DHT22;3443;48.812;9.112;2022-12-07T03:29:24;3.00;99.90
6810;DHT22;3443;48.812;9.112;2022-12-07T03:32:02;3.00;99.90
6810;DHT22;3443;48.812;9.112;2022-12-07T03:34:41;2.90;99.90
6810;DHT22;3443;48.812;9.112;2022-12-07T03:37:17;2.90;99.90
6810;DHT22;3443;48.812;9.112;2022-12-07T03:40:00;2.90;99.90
6810;DHT22;3443;48.812;9.112;2022-12-07T03:42:27;2.80;99.90
6810;DHT22;3443;48.812;9.112;2022-12-07T03:44:52;2.80;99.90
6810;DHT22;3443;48.812;9.112;2022-12-07T03:47:44;2.80;99.90
6810;DHT22;3443;48.812;9.112;2022-12-07T03:50:22;2.80;99.90
6810;DHT22;3443;48.812;9.112;2022-12-07T03:52:58;2.80;99.90
6810;DHT22;3443;48.812;9.112;2022-12-07T03:55:35;2.70;99.90
6810;DHT22;3443;48.812;9.112;2022-12-07T03:58:14;2.70;99.90
6810;DHT22;3443;48.812;9.112;2022-12-07T04:00:42;2.70;99.90
6810;DHT22;3443;48.812;9.112;2022-12-07T04:03:10;2.70;99.90
6810;DHT22;3443;48.812;9.112;2022-12-07T04:05:35;2.70;99.90
6810;DHT22;3443;48.812;9.112;2022-12-07T04:08:01;2.70;99.90
6810;DHT22;3443;48.812;9.112;2022-12-07T04:10:27;2.70;99.90
6810;DHT22;3443;48.812;9.112;2022-12-07T04:12:52;2.80;99.90
6810;DHT22;3443;48.812;9.112;2022-12-07T04:15:18;2.90;99.90
6810;DHT22;3443;48.812;9.112;2022-12-07T04:17:44;2.80;99.90
6810;DHT22;3443;48.812;9.112;2022-12-07T04:20:10;2.80;99.90
6810;DHT22;3443;48.812;9.112;2022-12-07T04:22:35;2.80;99.90
6810;DHT22;3443;48.812;9.112;2022-12-07T04:25:01;2.80;99.90
6810;DHT22;3443;48.812;9.112;2022-12-07T04:27:27;2.80;99.90
6810;DHT22;3443;48.812;9.112;2022-12-07T04:29:52;2.80;99.90
6810;DHT22;3443;48.812;9.112;2022-12-07T04:32:18;2.80;99.90
6810;DHT22;3443;48.812;9.112;2022-12-07T04:34:43;2.80;99.90
6810;DHT22;3443;48.812;9.112;2022-12-07T04:37:09;2.70;99.90
6810;DHT22;3443;48.812;9.112;2022-12-07T04:39:34;2.70;99.90
6810;DHT22;3443;48.812;9.112;2022-12-07T04:42:01;2.70;99.90
6810;DHT22;3443;48.812;9.112;2022-12-07T04:44:28;2.70;99.90
6810;DHT22;3443;48.812;9.112;2022-12-07T04:46:54;2.70;99.90
6810;DHT22;3443;48.812;9.112;2022-12-07T04:49:21;2.80;99.90
6810;DHT22;3443;48.812;9.112;2022-12-07T04:51:46;2.80;99.90
6810;DHT22;3443;48.812;9.112;2022-12-07T04:54:13;2.70;99.90
6810;DHT22;3443;48.812;9.112;2022-12-07T04:56:40;2.70;99.90
6810;DHT22;3443;48.812;9.112;2022-12-07T04:59:06;2.80;99.90
6810;DHT22;3443;48.812;9.112;2022-12-07T05:01:32;2.80;99.90
6810;DHT22;3443;48.812;9.112;2022-12-07T05:03:57;2.70;99.90
6810;DHT22;3443;48.812;9.112;2022-12-07T05:06:23;2.80;99.90
6810;DHT22;3443;48.812;9.112;2022-12-07T05:08:48;2.70;99.90
6810;DHT22;3443;48.812;9.112;2022-12-07T05:11:15;2.70;99.90
6810;DHT22;3443;48.812;9.112;2022-12-07T05:14:02;2.70;99.90
6810;DHT22;3443;48.812;9.112;2022-12-07T05:16:27;2.60;99.90
6810;DHT22;3443;48.812;9.112;2022-12-07T05:18:53;2.60;99.90
6810;DHT22;3443;48.812;9.112;2022-12-07T05:21:19;2.50;99.90
6810;DHT22;3443;48.812;9.112;2022-12-07T05:23:45;2.50;99.90
6810;DHT22;3443;48.812;9.112;2022-12-07T05:26:10;2.50;99.90
6810;DHT22;3443;48.812;9.112;2022-12-07T05:28:36;2.50;99.90
6810;DHT22;3443;48.812;9.112;2022-12-07T05:31:01;2.50;99.90
6810;DHT22;3443;48.812;9.112;2022-12-07T05:33:27;2.40;99.90
6810;DHT22;3443;48.812;9.112;2022-12-07T05:35:53;2.30;99.90
6810;DHT22;3443;48.812;9.112;2022-12-07T05:38:18;2.30;99.90
6810;DHT22;3443;48.812;9.112;2022-12-07T05:40:44;2.20;99.90
6810;DHT22;3443;48.812;9.112;2022-12-07T05:43:10;2.20;99.90
6810;DHT22;3443;48.812;9.112;2022-12-07T05:45:36;2.20;99.90
6810;DHT22;3443;48.812;9.112;2022-12-07T05:48:01;2.20;99.90
6810;DHT22;3443;48.812;9.112;2022-12-07T05:50:27;2.20;99.90
6810;DHT22;3443;48.812;9.112;2022-12-07T05:52:53;2.10;99.90
6810;DHT22;3443;48.812;9.112;2022-12-07T05:55:19;2.10;99.90
6810;DHT22;3443;48.812;9.112;2022-12-07T05:57:44;2.20;99.90
6810;DHT22;3443;48.812;9.112;2022-12-07T06:00:30;2.20;99.90
6810;DHT22;3443;48.812;9.112;2022-12-07T06:02:55;2.20;99.90
6810;DHT22;3443;48.812;9.112;2022-12-07T06:05:21;2.20;99.90
6810;DHT22;3443;48.812;9.112;2022-12-07T06:07:46;2.20;99.90
6810;DHT22;3443;48.812;9.112;2022-12-07T06:10:12;2.20;99.90
6810;DHT22;3443;48.812;9.112;2022-12-07T06:12:38;2.10;99.90
6810;DHT22;3443;48.812;9.112;2022-12-07T06:15:05;2.10;99.90
6810;DHT22;3443;48.812;9.112;2022-12-07T06:17:31;2.20;99.90
6810;DHT22;3443;48.812;9.112;2022-12-07T06:19:57;2.20;99.90
6810;DHT22;3443;48.812;9.112;2022-12-07T06:22:22;2.20;99.90
6810;DHT22;3443;48.812;9.112;2022-12-07T06:24:48;2.20;99.90
6810;DHT22;3443;48.812;9.112;2022-12-07T06:27:13;2.30;99.90
6810;DHT22;3443;48.812;9.112;2022-12-07T06:29:39;2.30;99.90
6810;DHT22;3443;48.812;9.112;2022-12-07T06:32:05;2.30;99.90
6810;DHT22;3443;48.812;9.112;2022-12-07T06:34:30;2.30;99.90
6810;DHT22;3443;48.812;9.112;2022-12-07T06:36:56;2.40;99.90
6810;DHT22;3443;48.812;9.112;2022-12-07T06:39:26;2.30;99.90
6810;DHT22;3443;48.812;9.112;2022-12-07T06:41:52;2.30;99.90
6810;DHT22;3443;48.812;9.112;2022-12-07T06:44:20;2.30;99.90
6810;DHT22;3443;48.812;9.112;2022-12-07T06:46:46;2.20;99.90
6810;DHT22;3443;48.812;9.112;2022-12-07T06:49:11;2.20;99.90
6810;DHT22;3443;48.812;9.112;2022-12-07T06:51:37;2.30;99.90
6810;DHT22;3443;48.812;9.112;2022-12-07T06:54:07;2.30;99.90
6810;DHT22;3443;48.812;9.112;2022-12-07T06:56:33;2.30;99.90
6810;DHT22;3443;48.812;9.112;2022-12-07T06:58:58;2.30;99.90
6810;DHT22;3443;48.812;9.112;2022-12-07T07:01:24;2.30;99.90
6810;DHT22;3443;48.812;9.112;2022-12-07T07:03:50;2.30;99.90
6810;DHT22;3443;48.812;9.112;2022-12-07T07:06:15;2.30;99.90
6810;DHT22;3443;48.812;9.112;2022-12-07T07:08:41;2.40;99.90
6810;DHT22;3443;48.812;9.112;2022-12-07T07:11:08;2.40;99.90
6810;DHT22;3443;48.812;9.112;2022-12-07T07:13:33;2.50;99.90
6810;DHT22;3443;48.812;9.112;2022-12-07T07:15:59;2.50;99.90
6810;DHT22;3443;48.812;9.112;2022-12-07T07:18:25;2.40;99.90
6810;DHT22;3443;48.812;9.112;2022-12-07T07:20:51;2.40;99.90
6810;DHT22;3443;48.812;9.112;2022-12-07T07:23:18;2.50;99.90
6810;DHT22;3443;48.812;9.112;2022-12-07T07:25:44;2.50;99.90
6810;DHT22;3443;48.812;9.112;2022-12-07T07:28:10;2.50;99.90
6810;DHT22;3443;48.812;9.112;2022-12-07T07:30:35;2.50;99.90
6810;DHT22;3443;48.812;9.112;2022-12-07T07:33:02;2.60;99.90
6810;DHT22;3443;48.812;9.112;2022-12-07T07:35:30;2.50;99.90
6810;DHT22;3443;48.812;9.112;2022-12-07T07:37:56;2.60;99.90
6810;DHT22;3443;48.812;9.112;2022-12-07T07:40:22;2.90;99.90
6810;DHT22;3443;48.812;9.112;2022-12-07T07:42:49;2.60;99.90
6810;DHT22;3443;48.812;9.112;2022-12-07T07:45:15;2.60;99.90
6810;DHT22;3443;48.812;9.112;2022-12-07T07:47:41;2.70;99.90
6810;DHT22;3443;48.812;9.112;2022-12-07T07:50:07;2.70;99.90
6810;DHT22;3443;48.812;9.112;2022-12-07T07:52:33;2.70;99.90
6810;DHT22;3443;48.812;9.112;2022-12-07T07:54:58;2.70;99.90
6810;DHT22;3443;48.812;9.112;2022-12-07T07:57:24;2.70;99.90
6810;DHT22;3443;48.812;9.112;2022-12-07T07:59:50;2.70;99.90
6810;DHT22;3443;48.812;9.112;2022-12-07T08:02:17;2.70;99.90
6810;DHT22;3443;48.812;9.112;2022-12-07T08:04:43;2.70;99.90
6810;DHT22;3443;48.812;9.112;2022-12-07T08:07:09;2.80;99.90
6810;DHT22;3443;48.812;9.112;2022-12-07T08:09:35;2.80;99.90
6810;DHT22;3443;48.812;9.112;2022-12-07T08:12:00;2.90;99.90
6810;DHT22;3443;48.812;9.112;2022-12-07T08:14:26;2.90;99.90
6810;DHT22;3443;48.812;9.112;2022-12-07T08:16:53;2.90;99.90
6810;DHT22;3443;48.812;9.112;2022-12-07T08:19:18;3.00;99.90
6810;DHT22;3443;48.812;9.112;2022-12-07T08:21:44;3.00;99.90
6810;DHT22;3443;48.812;9.112;2022-12-07T08:24:09;3.00;99.90
6810;DHT22;3443;48.812;9.112;2022-12-07T08:26:35;3.10;99.90
6810;DHT22;3443;48.812;9.112;2022-12-07T08:29:01;3.20;99.90
6810;DHT22;3443;48.812;9.112;2022-12-07T08:31:27;3.10;99.90
6810;DHT22;3443;48.812;9.112;2022-12-07T08:33:54;3.10;99.90
6810;DHT22;3443;48.812;9.112;2022-12-07T08:36:19;3.20;99.90
6810;DHT22;3443;48.812;9.112;2022-12-07T08:38:46;3.20;99.90
6810;DHT22;3443;48.812;9.112;2022-12-07T08:41:12;3.30;99.90
6810;DHT22;3443;48.812;9.112;2022-12-07T08:43:38;3.30;99.90
6810;DHT22;3443;48.812;9.112;2022-12-07T08:46:06;3.30;99.90
6810;DHT22;3443;48.812;9.112;2022-12-07T08:48:33;3.30;99.90
6810;DHT22;3443;48.812;9.112;2022-12-07T08:51:01;3.40;99.90
6810;DHT22;3443;48.812;9.112;2022-12-07T08:53:27;3.40;99.90
6810;DHT22;3443;48.812;9.112;2022-12-07T08:55:53;3.40;99.90
6810;DHT22;3443;48.812;9.112;2022-12-07T08:58:19;3.50;99.90
6810;DHT22;3443;48.812;9.112;2022-12-07T09:00:44;3.50;99.90
6810;DHT22;3443;48.812;9.112;2022-12-07T09:03:10;3.50;99.90
6810;DHT22;3443;48.812;9.112;2022-12-07T09:05:36;3.60;99.90
6810;DHT22;3443;48.812;9.112;2022-12-07T09:08:01;3.60;99.90
6810;DHT22;3443;48.812;9.112;2022-12-07T09:10:28;3.60;99.90
6810;DHT22;3443;48.812;9.112;2022-12-07T09:12:54;3.60;99.90
6810;DHT22;3443;48.812;9.112;2022-12-07T09:15:20;3.60;99.90
6810;DHT22;3443;48.812;9.112;2022-12-07T09:17:45;3.70;99.90
6810;DHT22;3443;48.812;9.112;2022-12-07T09:20:11;3.80;99.90
6810;DHT22;3443;48.812;9.112;2022-12-07T09:22:37;3.80;99.90
6810;DHT22;3443;48.812;9.112;2022-12-07T09:25:03;3.90;99.90
6810;DHT22;3443;48.812;9.112;2022-12-07T09:27:29;4.00;99.90
6810;DHT22;3443;48.812;9.112;2022-12-07T09:29:55;4.00;99.90
6810;DHT22;3443;48.812;9.112;2022-12-07T09:32:21;4.10;99.90
6810;DHT22;3443;48.812;9.112;2022-12-07T09:34:46;4.10;99.90
6810;DHT22;3443;48.812;9.112;2022-12-07T09:37:12;4.10;99.90
6810;DHT22;3443;48.812;9.112;2022-12-07T09:39:38;4.20;99.90
6810;DHT22;3443;48.812;9.112;2022-12-07T09:42:05;4.20;99.90
6810;DHT22;3443;48.812;9.112;2022-12-07T09:44:31;4.30;99.90
6810;DHT22;3443;48.812;9.112;2022-12-07T09:46:57;4.30;99.90
6810;DHT22;3443;48.812;9.112;2022-12-07T09:49:25;4.30;99.90
6810;DHT22;3443;48.812;9.112;2022-12-07T09:52:18;4.40;99.90
6810;DHT22;3443;48.812;9.112;2022-12-07T09:54:47;4.50;99.90
6810;DHT22;3443;48.812;9.112;2022-12-07T09:57:13;4.50;99.90
6810;DHT22;3443;48.812;9.112;2022-12-07T09:59:39;4.60;99.90
6810;DHT22;3443;48.812;9.112;2022-12-07T10:02:24;4.60;99.90
6810;DHT22;3443;48.812;9.112;2022-12-07T10:04:50;4.60;99.90
6810;DHT22;3443;48.812;9.112;2022-12-07T10:07:16;4.70;99.90
6810;DHT22;3443;48.812;9.112;2022-12-07T10:09:41;4.60;99.90
6810;DHT22;3443;48.812;9.112;2022-12-07T10:12:11;4.60;99.90
6810;DHT22;3443;48.812;9.112;2022-12-07T10:14:39;4.50;99.90
6810;DHT22;3443;48.812;9.112;2022-12-07T10:20:24;4.70;99.90
6810;DHT22;3443;48.812;9.112;2022-12-07T10:25:21;4.70;99.90
6810;DHT22;3443;48.812;9.112;2022-12-07T10:30:33;4.80;99.90
6810;DHT22;3443;48.812;9.112;2022-12-07T10:35:55;4.90;99.90
6810;DHT22;3443;48.812;9.112;2022-12-07T10:38:20;4.90;99.90
6810;DHT22;3443;48.812;9.112;2022-12-07T10:40:46;5.00;99.90
6810;DHT22;3443;48.812;9.112;2022-12-07T10:48:46;5.00;99.90
6810;DHT22;3443;48.812;9.112;2022-12-07T10:51:22;5.00;99.90
6810;DHT22;3443;48.812;9.112;2022-12-07T11:01:57;5.00;99.90
6810;DHT22;3443;48.812;9.112;2022-12-07T11:07:47;5.10;99.90
6810;DHT22;3443;48.812;9.112;2022-12-07T11:18:55;4.90;99.90
6810;DHT22;3443;48.812;9.112;2022-12-07T11:22:14;4.90;99.90
6810;DHT22;3443;48.812;9.112;2022-12-07T11:24:40;4.80;99.90
6810;DHT22;3443;48.812;9.112;2022-12-07T11:38:01;4.70;99.90
6810;DHT22;3443;48.812;9.112;2022-12-07T11:40:34;4.70;99.90
6810;DHT22;3443;48.812;9.112;2022-12-07T11:43:06;4.60;99.90
6810;DHT22;3443;48.812;9.112;2022-12-07T11:45:37;4.60;99.90
6810;DHT22;3443;48.812;9.112;2022-12-07T11:48:23;4.60;99.90
6810;DHT22;3443;48.812;9.112;2022-12-07T11:50:53;4.50;99.90
6810;DHT22;3443;48.812;9.112;2022-12-07T11:53:25;4.60;99.90
6810;DHT22;3443;48.812;9.112;2022-12-07T12:06:31;4.60;99.90
6810;DHT22;3443;48.812;9.112;2022-12-07T12:09:46;4.50;99.90
6810;DHT22;3443;48.812;9.112;2022-12-07T12:22:39;4.50;99.90
6810;DHT22;3443;48.812;9.112;2022-12-07T12:25:19;4.50;99.90
6810;DHT22;3443;48.812;9.112;2022-12-07T12:27:47;4.50;99.90
6810;DHT22;3443;48.812;9.112;2022-12-07T12:30:30;4.40;99.90
6810;DHT22;3443;48.812;9.112;2022-12-07T12:33:26;4.50;99.90
6810;DHT22;3443;48.812;9.112;2022-12-07T12:47:03;4.70;99.90
6810;DHT22;3443;48.812;9.112;2022-12-07T12:49:38;4.70;99.90
6810;DHT22;3443;48.812;9.112;2022-12-07T12:54:39;4.60;99.90
6810;DHT22;3443;48.812;9.112;2022-12-07T12:57:30;4.50;99.90
6810;DHT22;3443;48.812;9.112;2022-12-07T12:59:58;4.60;99.90
6810;DHT22;3443;48.812;9.112;2022-12-07T13:02:38;4.50;99.90
6810;DHT22;3443;48.812;9.112;2022-12-07T13:10:25;4.50;99.90
6810;DHT22;3443;48.812;9.112;2022-12-07T13:20:57;4.50;99.90
6810;DHT22;3443;48.812;9.112;2022-12-07T13:39:47;4.50;99.90
6810;DHT22;3443;48.812;9.112;2022-12-07T13:42:31;4.40;99.90
6810;DHT22;3443;48.812;9.112;2022-12-07T13:44:59;4.50;99.90
6810;DHT22;3443;48.812;9.112;2022-12-07T13:47:36;4.50;99.90
6810;DHT22;3443;48.812;9.112;2022-12-07T13:50:27;4.50;99.90
6810;DHT22;3443;48.812;9.112;2022-12-07T13:52:57;4.50;99.90
6810;DHT22;3443;48.812;9.112;2022-12-07T13:55:23;4.50;99.90
6810;DHT22;3443;48.812;9.112;2022-12-07T13:57:53;4.50;99.90
6810;DHT22;3443;48.812;9.112;2022-12-07T14:00:23;4.50;99.90
6810;DHT22;3443;48.812;9.112;2022-12-07T14:02:58;4.50;99.90
6810;DHT22;3443;48.812;9.112;2022-12-07T14:05:26;4.60;99.90
6810;DHT22;3443;48.812;9.112;2022-12-07T14:08:03;4.50;99.90
6810;DHT22;3443;48.812;9.112;2022-12-07T14:10:52;4.60;99.90
6810;DHT22;3443;48.812;9.112;2022-12-07T14:13:29;4.60;99.90
6810;DHT22;3443;48.812;9.112;2022-12-07T14:15:56;4.60;99.90
6810;DHT22;3443;48.812;9.112;2022-12-07T14:23:38;4.60;99.90
6810;DHT22;3443;48.812;9.112;2022-12-07T14:26:07;4.60;99.90
6810;DHT22;3443;48.812;9.112;2022-12-07T14:28:37;4.50;99.90
6810;DHT22;3443;48.812;9.112;2022-12-07T14:31:03;4.60;99.90
6810;DHT22;3443;48.812;9.112;2022-12-07T14:33:33;4.60;99.90
6810;DHT22;3443;48.812;9.112;2022-12-07T14:35:59;4.60;99.90
6810;DHT22;3443;48.812;9.112;2022-12-07T14:38:25;4.60;99.90
6810;DHT22;3443;48.812;9.112;2022-12-07T14:40:52;4.60;99.90
6810;DHT22;3443;48.812;9.112;2022-12-07T14:43:19;4.50;99.90
6810;DHT22;3443;48.812;9.112;2022-12-07T14:45:45;4.50;99.90
6810;DHT22;3443;48.812;9.112;2022-12-07T14:48:12;4.50;99.90
6810;DHT22;3443;48.812;9.112;2022-12-07T14:50:42;4.50;99.90
6810;DHT22;3443;48.812;9.112;2022-12-07T14:53:17;4.40;99.90
6810;DHT22;3443;48.812;9.112;2022-12-07T14:55:42;4.40;99.90
6810;DHT22;3443;48.812;9.112;2022-12-07T14:58:17;4.40;99.90
6810;DHT22;3443;48.812;9.112;2022-12-07T15:00:44;4.30;99.90
6810;DHT22;3443;48.812;9.112;2022-12-07T15:03:10;4.20;99.90
6810;DHT22;3443;48.812;9.112;2022-12-07T15:05:36;4.20;99.90
6810;DHT22;3443;48.812;9.112;2022-12-07T15:08:02;4.20;99.90
6810;DHT22;3443;48.812;9.112;2022-12-07T15:10:31;4.20;99.90
6810;DHT22;3443;48.812;9.112;2022-12-07T15:13:01;4.10;99.90
6810;DHT22;3443;48.812;9.112;2022-12-07T15:15:51;4.10;99.90
6810;DHT22;3443;48.812;9.112;2022-12-07T15:18:18;4.10;99.90
6810;DHT22;3443;48.812;9.112;2022-12-07T15:20:44;4.10;99.90
6810;DHT22;3443;48.812;9.112;2022-12-07T15:23:10;4.00;99.90
6810;DHT22;3443;48.812;9.112;2022-12-07T15:25:36;4.00;99.90
6810;DHT22;3443;48.812;9.112;2022-12-07T15:28:02;4.00;99.90
6810;DHT22;3443;48.812;9.112;2022-12-07T15:30:27;4.00;99.90
6810;DHT22;3443;48.812;9.112;2022-12-07T15:32:53;4.00;99.90
6810;DHT22;3443;48.812;9.112;2022-12-07T15:35:19;3.90;99.90
6810;DHT22;3443;48.812;9.112;2022-12-07T15:37:45;3.80;99.90
6810;DHT22;3443;48.812;9.112;2022-12-07T15:40:12;3.80;99.90
6810;DHT22;3443;48.812;9.112;2022-12-07T15:42:37;3.80;99.90
6810;DHT22;3443;48.812;9.112;2022-12-07T15:45:05;3.70;99.90
6810;DHT22;3443;48.812;9.112;2022-12-07T15:47:42;3.70;99.90
6810;DHT22;3443;48.812;9.112;2022-12-07T15:50:11;3.60;99.90
6810;DHT22;3443;48.812;9.112;2022-12-07T15:52:37;3.60;99.90
6810;DHT22;3443;48.812;9.112;2022-12-07T15:55:03;3.50;99.90
6810;DHT22;3443;48.812;9.112;2022-12-07T15:57:30;3.50;99.90
6810;DHT22;3443;48.812;9.112;2022-12-07T15:59:56;3.50;99.90
6810;DHT22;3443;48.812;9.112;2022-12-07T16:02:22;3.40;99.90
6810;DHT22;3443;48.812;9.112;2022-12-07T16:04:51;3.40;99.90
6810;DHT22;3443;48.812;9.112;2022-12-07T16:07:17;3.40;99.90
6810;DHT22;3443;48.812;9.112;2022-12-07T16:09:44;3.40;99.90
6810;DHT22;3443;48.812;9.112;2022-12-07T16:12:11;3.30;99.90
6810;DHT22;3443;48.812;9.112;2022-12-07T16:14:37;3.30;99.90
6810;DHT22;3443;48.812;9.112;2022-12-07T16:17:04;3.30;99.90
6810;DHT22;3443;48.812;9.112;2022-12-07T16:19:31;3.30;99.90
6810;DHT22;3443;48.812;9.112;2022-12-07T16:21:57;3.30;99.90
6810;DHT22;3443;48.812;9.112;2022-12-07T16:24:22;3.20;99.90
6810;DHT22;3443;48.812;9.112;2022-12-07T16:26:48;3.20;99.90
6810;DHT22;3443;48.812;9.112;2022-12-07T16:29:14;3.20;99.90
6810;DHT22;3443;48.812;9.112;2022-12-07T16:31:40;3.10;99.90
6810;DHT22;3443;48.812;9.112;2022-12-07T16:34:06;3.40;99.90
6810;DHT22;3443;48.812;9.112;2022-12-07T16:36:32;3.00;99.90
6810;DHT22;3443;48.812;9.112;2022-12-07T16:39:00;3.00;99.90
6810;DHT22;3443;48.812;9.112;2022-12-07T16:41:26;3.00;99.90
6810;DHT22;3443;48.812;9.112;2022-12-07T16:43:52;3.00;99.90
6810;DHT22;3443;48.812;9.112;2022-12-07T16:46:18;3.00;99.90
6810;DHT22;3443;48.812;9.112;2022-12-07T16:48:44;2.90;99.90
6810;DHT22;3443;48.812;9.112;2022-12-07T16:51:11;2.90;99.90
6810;DHT22;3443;48.812;9.112;2022-12-07T16:53:39;2.90;99.90
6810;DHT22;3443;48.812;9.112;2022-12-07T16:56:14;2.80;99.90
6810;DHT22;3443;48.812;9.112;2022-12-07T16:58:43;2.70;99.90
6810;DHT22;3443;48.812;9.112;2022-12-07T17:01:20;2.70;99.90
6810;DHT22;3443;48.812;9.112;2022-12-07T17:03:48;2.70;99.90
6810;DHT22;3443;48.812;9.112;2022-12-07T17:06:19;2.60;99.90
6810;DHT22;3443;48.812;9.112;2022-12-07T17:08:45;2.70;99.90
6810;DHT22;3443;48.812;9.112;2022-12-07T17:11:16;2.70;99.90
6810;DHT22;3443;48.812;9.112;2022-12-07T17:13:43;2.80;99.90
6810;DHT22;3443;48.812;9.112;2022-12-07T17:16:28;2.80;99.90
6810;DHT22;3443;48.812;9.112;2022-12-07T17:18:54;2.80;99.90
6810;DHT22;3443;48.812;9.112;2022-12-07T17:21:20;2.80;99.90
6810;DHT22;3443;48.812;9.112;2022-12-07T17:23:46;2.90;99.90
6810;DHT22;3443;48.812;9.112;2022-12-07T17:26:15;2.90;99.90
6810;DHT22;3443;48.812;9.112;2022-12-07T17:28:42;2.80;99.90
6810;DHT22;3443;48.812;9.112;2022-12-07T17:31:10;2.90;99.90
6810;DHT22;3443;48.812;9.112;2022-12-07T17:33:36;2.80;99.90
6810;DHT22;3443;48.812;9.112;2022-12-07T17:36:13;2.90;99.90
6810;DHT22;3443;48.812;9.112;2022-12-07T17:38:40;2.80;99.90
6810;DHT22;3443;48.812;9.112;2022-12-07T17:41:11;2.80;99.90
6810;DHT22;3443;48.812;9.112;2022-12-07T17:43:38;2.70;99.90
6810;DHT22;3443;48.812;9.112;2022-12-07T17:46:09;2.70;99.90
6810;DHT22;3443;48.812;9.112;2022-12-07T17:48:35;2.70;99.90
6810;DHT22;3443;48.812;9.112;2022-12-07T17:51:01;2.70;99.90
6810;DHT22;3443;48.812;9.112;2022-12-07T17:53:50;2.70;99.90
6810;DHT22;3443;48.812;9.112;2022-12-07T17:56:16;2.70;99.90
6810;DHT22;3443;48.812;9.112;2022-12-07T17:58:42;2.80;99.90
6810;DHT22;3443;48.812;9.112;2022-12-07T18:01:08;2.80;99.90
6810;DHT22;3443;48.812;9.112;2022-12-07T18:03:34;2.80;99.90
6810;DHT22;3443;48.812;9.112;2022-12-07T18:06:00;3.20;99.90
6810;DHT22;3443;48.812;9.112;2022-12-07T18:08:26;2.90;99.90
6810;DHT22;3443;48.812;9.112;2022-12-07T18:10:58;2.90;99.90
6810;DHT22;3443;48.812;9.112;2022-12-07T18:13:23;2.90;99.90
6810;DHT22;3443;48.812;9.112;2022-12-07T18:16:02;2.90;99.90
6810;DHT22;3443;48.812;9.112;2022-12-07T18:18:28;2.90;99.90
6810;DHT22;3443;48.812;9.112;2022-12-07T18:20:53;2.90;99.90
6810;DHT22;3443;48.812;9.112;2022-12-07T18:23:20;2.90;99.90
6810;DHT22;3443;48.812;9.112;2022-12-07T18:25:47;2.90;99.90
6810;DHT22;3443;48.812;9.112;2022-12-07T18:28:13;2.90;99.90
6810;DHT22;3443;48.812;9.112;2022-12-07T18:30:39;2.90;99.90
6810;DHT22;3443;48.812;9.112;2022-12-07T18:33:05;2.90;99.90
6810;DHT22;3443;48.812;9.112;2022-12-07T18:35:31;2.90;99.90
6810;DHT22;3443;48.812;9.112;2022-12-07T18:37:59;2.90;99.90
6810;DHT22;3443;48.812;9.112;2022-12-07T18:40:24;2.60;99.90
6810;DHT22;3443;48.812;9.112;2022-12-07T18:42:50;3.00;99.90